Main page
METAR-TAF:

METAR-TAF

Airports :

City of Derry Airport

Derry, Northern Ireland

latitude: 55-03N, longitude: 007-09W, elevation: 9 m

Current weather observation

The report was made 2 hours and 6 minutes ago, at 20:50 UTC
Wind 8 kt from the East
Temperature 7°C
Humidity 76%
Pressure 999 hPa
Visibility 10 km or more
Few clouds at a height of 1900 ft
Broken clouds at a height of 2400 ft

METAR: EGAE 212050Z 08008KT 9999 FEW019 BKN024 07/03 Q0999

Time: 22:56 (22:56 UTC)

Forecast

The report was made 6 hours and 0 minutes ago, at 16:56 UTC
Forecast valid from 21 at 18 UTC to 21 at 21 UTC
Wind 12 kt from the East
Visibility 10 km or more
Few clouds at a height of 1500 ft
Broken clouds at a height of 2000 ft
Probability 30% :
Temporary
from 21 at 18 UTC to 21 at 21 UTC
Wind 18 kt from the East with gusts up to 28 kt

TAF: EGAE 211656Z 2118/2121 09012KT 9999 FEW015 BKN020 PROB30 TEMPO 2118/2121 10018G28KT

Weather observations and forecasts of more than 4000 airports (METAR and TAF reports).

The available stations are represented by yellow and red dots on the map.

Hover mouse over dot to see the name of the station.

Then click to see weather observations and forecasts.

To change the map : click on the green buttons with a black cross to zoom in, on the green button with a dash to zoom out, or on the green arrows for adjacent maps.


METAR-TAF: